EmailTwitter


Observations de surface / France / LFPO (07149)

Régions: Québec | Canada | États-Unis | Europe | France | UK | Ailleurs
Station
Affichage
Infos & localisation pour LFPO (07149) | Aide pour décoder les METARs

Observations prises le 2018-04-19 à 09H30 UTC à PARIS/ORLY, FR (LFPO)

Température: 22.0 Celsius

Point de rosée: 12.0 Celsius

Humidité relative: 53%

Vents: Sud à 13 km/h ou 7 noeuds.

Pression au niveau moyen de la mer: 102.50 kilopascals.

Observation METAR:

LFPO 190930Z 19007KT 150V240 CAVOK 22/12 Q1025 NOSIG=